Latest Weather Observations for Lucas Heights (ANSTO)

IDN60901

Issued at 6:21 am EDT Wednesday 13 November 2019 (issued every 10 minutes, with the page automatically refreshed every 10 minutes)

About weather observations | Map of Sydney area stations | Latest observations for Sydney area | Other Formats
Station Details ID: 066023 Name: LUCAS HEIGHTS (ANSTO) Lat: -34.05 Lon: 150.98 Height: 140.0 m
Data from the previous 72 hours. | See also: Recent months for locations in New South Wales
Date/Time
EDT
Temp
°C
App
Temp
°C
Dew
Point
°C
Rel
Hum
%
Delta-T
°C
Wind Press
QNH
hPa
Press
MSL
hPa
Rain since
9am
mm
Dir  Spd
km/h
Gust
km/h
Spd
kts
Gust
kts
13/06:00am 12.1 6.7 1.3 47 4.6 SW 19 22 10 12 1011.7 - 0.0
13/05:45am 11.6 7.6 2.7 54 3.9 SW 13 17 7 9 1011.5 - 0.0
13/05:30am 12.4 7.7 2.9 52 4.2 WSW 17 20 9 11 1011.3 - 0.0
13/05:15am 12.4 7.9 4.1 57 3.8 WSW 17 20 9 11 1011.2 - 0.0
13/05:00am 12.2 8.4 5.7 64 3.1 WSW 15 22 8 12 1011.2 - 0.0
13/04:45am 12.8 9.5 6.6 66 3.0 SW 13 17 7 9 1011.2 - 0.0
13/04:30am 13.2 9.8 7.6 69 2.8 WSW 15 22 8 12 1011.1 - 0.0
13/04:15am 13.2 9.8 7.7 69 2.7 WSW 15 17 8 9 1010.9 - 0.0
13/04:00am 12.9 10.0 8.0 72 2.4 SW 13 13 7 7 1010.7 - 0.0
13/03:45am 13.0 10.2 8.4 73 2.3 SSW 13 13 7 7 1010.6 - 0.0
13/03:30am 13.0 9.9 8.9 76 2.1 SW 15 13 8 7 1010.6 - 0.0
13/03:15am 13.0 10.4 9.2 78 1.9 SSW 13 15 7 8 1010.5 - 0.0
13/03:00am 12.9 10.3 9.3 79 1.8 S 13 15 7 8 1010.3 - 0.0
13/02:45am 13.0 10.0 9.3 78 1.9 S 15 17 8 9 1010.3 - 0.0
13/02:30am 13.3 9.6 9.4 77 2.0 S 19 20 10 11 1010.1 - 0.0
13/02:15am 13.4 10.5 9.5 77 2.0 S 15 19 8 10 1010.0 - 0.0
13/02:00am 13.7 11.2 9.7 77 2.1 S 13 20 7 11 1010.1 - 0.0
13/01:45am 13.8 10.9 9.7 76 2.1 S 15 20 8 11 1010.0 - 0.0
13/01:30am 14.0 11.1 9.8 76 2.2 SSE 15 22 8 12 1010.0 - 0.0
13/01:15am 14.1 10.9 9.9 76 2.2 SSE 17 24 9 13 1010.6 - 0.0
13/01:00am 14.2 10.4 9.9 75 2.2 SSE 20 28 11 15 1009.9 - 0.0
13/12:45am 14.3 10.2 10.0 75 2.2 S 22 30 12 16 1009.8 - 0.0
13/12:30am 14.5 10.0 10.1 75 2.3 S 24 32 13 17 1009.9 - 0.0
13/12:15am 14.7 10.2 10.2 74 2.4 SSE 24 33 13 18 1009.9 - 0.0
13/12:00am 14.8 10.0 10.4 75 2.3 S 26 33 14 18 1009.8 - 0.0
 
Date/Time
EDT
Temp
°C
App
Temp
°C
Dew
Point
°C
Rel
Hum
%
Delta-T
°C
Wind Press
QNH
hPa
Press
MSL
hPa
Rain since
9am
mm
Dir  Spd
km/h
Gust
km/h
Spd
kts
Gust
kts
12/11:45pm 15.0 8.9 10.6 75 2.3 SSE 33 41 18 22 1009.7 - 0.0
12/11:30pm 15.1 9.0 10.6 74 2.4 SSE 33 44 18 24 1009.5 - 0.0
12/11:15pm 15.2 8.0 10.7 74 2.4 SSE 39 50 21 27 1009.2 - 0.0
12/11:00pm 15.3 8.2 10.8 74 2.4 SSE 39 56 21 30 1009.1 - 0.0
12/10:45pm 15.3 8.6 10.9 75 2.4 SSE 37 56 20 30 1008.9 - 0.0
12/10:30pm 15.5 9.7 10.9 74 2.5 SSE 32 39 17 21 1008.9 - 0.0
12/10:15pm 15.6 9.7 11.2 75 2.4 SSE 33 48 18 26 1008.6 - 0.0
12/10:00pm 15.7 7.4 11.4 75 2.3 SSE 46 57 25 31 1008.2 - 0.0
12/09:45pm 15.8 7.9 11.6 76 2.3 SSE 44 61 24 33 1007.8 - 0.0
12/09:30pm 16.0 8.4 11.9 76 2.2 SSE 43 54 23 29 1007.4 - 0.0
12/09:15pm 16.2 9.0 12.0 76 2.3 SSE 41 56 22 30 1007.0 - 0.0
12/09:00pm 16.3 8.2 11.9 75 2.4 SSE 46 56 25 30 1006.6 - 0.0
12/08:45pm 16.7 9.5 12.0 74 2.6 SSE 41 59 22 32 1006.2 - 0.0
12/08:30pm 17.2 11.3 12.3 73 2.7 SSE 35 44 19 24 1005.8 - 0.0
12/08:15pm 17.8 11.8 12.1 69 3.2 SSE 35 44 19 24 1005.4 - 0.0
12/08:00pm 19.6 13.8 11.6 60 4.4 SSE 33 48 18 26 1004.7 - 0.0
12/07:45pm 25.0 19.5 7.4 32 9.3 S 26 41 14 22 1004.3 - 0.0
12/07:30pm 28.6 19.6 -6.0 10 14.8 SW 33 48 18 26 1003.6 - 0.0
12/07:15pm 29.6 20.2 -6.9 9 15.5 SW 35 46 19 25 1002.9 - 0.0
12/07:00pm 30.7 21.5 -8.6 7 16.4 SW 33 54 18 29 1002.3 - 0.0
12/06:45pm 31.4 22.2 -11.1 6 17.1 WSW 32 44 17 24 1002.0 - 0.0
12/06:30pm 32.0 22.5 -11.8 5 17.5 WSW 33 43 18 23 1001.5 - 0.0
12/06:15pm 32.6 20.3 -12.3 5 17.9 WSW 48 65 26 35 1001.0 - 0.0
12/06:00pm 33.2 21.8 -12.9 4 18.3 W 43 54 23 29 1000.6 - 0.0
12/05:45pm 33.4 22.3 -13.5 4 18.5 W 41 57 22 31 1000.4 - 0.0
12/05:30pm 33.8 21.0 -14.5 4 18.8 W 50 69 27 37 1000.2 - 0.0
12/05:15pm 34.2 22.7 -14.0 4 19.0 W 43 59 23 32 1000.1 - 0.0
12/05:00pm 34.2 22.5 -14.5 4 19.0 W 44 57 24 31 1000.1 - 0.0
12/04:00pm 35.0 24.2 -15.2 3 19.5 W 39 46 21 25 1000.0 - 0.0
12/03:45pm 35.1 24.0 -14.5 3 19.5 WNW 41 54 22 29 1000.1 - 0.0
12/03:30pm 35.0 24.3 -14.4 3 19.5 W 39 48 21 26 1000.3 - 0.0
12/03:15pm 34.8 25.3 -12.5 4 19.2 W 33 46 18 25 1000.4 - 0.0
12/03:00pm 34.6 24.4 -12.0 4 19.0 W 37 46 20 25 1000.8 - 0.0
12/02:45pm 34.5 23.1 -12.5 4 19.0 W 43 56 23 30 1001.1 - 0.0
12/02:30pm 34.7 24.5 -12.2 4 19.1 W 37 54 20 29 1001.4 - 0.0
12/02:15pm 34.8 25.9 -11.4 4 19.1 W 30 46 16 25 1001.6 - 0.0
12/02:00pm 34.3 24.4 -12.6 4 18.9 W 35 54 19 29 1001.8 - 0.0
12/01:45pm 34.0 23.8 -11.5 5 18.6 W 37 54 20 29 1002.1 - 0.0
12/01:30pm 33.7 23.6 -10.6 5 18.3 WNW 37 56 20 30 1002.4 - 0.0
12/01:15pm 33.5 24.2 -9.1 6 18.0 W 33 44 18 24 1002.7 - 0.0
12/01:00pm 33.0 24.0 -8.5 6 17.7 W 32 44 17 24 1003.1 - 0.0
12/12:45pm 32.8 23.2 -8.2 6 17.5 W 35 48 19 26 1003.3 - 0.0
12/12:30pm 32.6 21.9 -8.4 6 17.4 W 41 50 22 27 1003.4 - 0.0
12/12:15pm 32.5 21.8 -8.4 6 17.4 W 41 57 22 31 1003.5 - 0.0
12/12:00pm 32.1 21.8 -8.2 7 17.1 W 39 54 21 29 1003.7 - 0.0
12/11:45am 31.7 21.8 -7.6 7 16.8 W 37 59 20 32 1004.0 - 0.0
12/11:30am 31.2 20.7 -6.1 8 16.3 WNW 41 52 22 28 1004.4 - 0.0
12/11:15am 30.3 21.3 -2.7 11 15.2 WNW 35 48 19 26 1004.6 - 0.0
12/11:00am 29.3 22.2 -0.9 14 14.2 WNW 26 39 14 21 1005.0 - 0.0
12/10:45am 27.5 21.0 0.6 17 12.8 NW 24 33 13 18 1005.4 - 0.0
12/10:30am 27.5 20.3 1.0 18 12.7 WNW 28 39 15 21 1005.7 - 0.0
12/10:15am 27.4 19.6 1.6 19 12.5 WNW 32 39 17 21 1005.8 - 0.0
12/10:00am 26.4 20.5 4.0 23 11.3 NW 24 32 13 17 1006.1 - 0.0
12/09:45am 25.4 19.2 4.5 26 10.5 NW 26 32 14 17 1006.5 - 0.0
12/09:30am 24.6 20.1 5.9 30 9.6 NW 19 24 10 13 1006.7 - 0.0
12/09:15am 23.3 18.9 7.3 35 8.4 NW 20 26 11 14 1007.0 - 0.0
12/09:00am 22.2 17.5 7.9 39 7.5 NW 22 30 12 16 1007.3 - 0.0
12/08:45am 20.9 16.4 8.6 45 6.5 NW 22 28 12 15 1007.6 - 0.0
12/08:30am 19.6 16.2 9.0 50 5.6 NW 17 24 9 13 1007.7 - 0.0
12/08:15am 19.0 15.1 8.7 51 5.4 NW 19 33 10 18 1007.8 - 0.0
12/08:00am 18.2 14.0 9.6 57 4.6 NW 22 28 12 15 1007.8 - 0.0
12/07:45am 17.0 14.5 11.1 68 3.2 NW 15 26 8 14 1008.0 - 0.0
12/07:30am 16.6 14.6 11.6 72 2.7 NW 13 19 7 10 1008.1 - 0.0
12/07:15am 16.0 13.7 12.9 82 1.7 NW 17 19 9 10 1008.2 - 0.0
12/07:00am 14.5 12.6 12.9 90 0.9 NW 15 19 8 10 1008.3 - 0.0
12/06:45am 13.0 11.0 11.5 91 0.8 NW 13 17 7 9 1008.3 - 0.0
12/06:30am 12.2 10.0 10.8 91 0.7 NW 13 15 7 8 1008.4 - 0.0
12/06:15am 11.3 9.2 9.7 90 0.8 WNW 11 13 6 7 1008.5 - 0.0
12/06:00am 11.6 8.4 10.0 90 0.8 WNW 17 19 9 10 1008.5 - 0.0
12/05:45am 12.0 9.3 10.4 90 0.8 WNW 15 15 8 8 1008.4 - 0.0
12/05:30am 11.9 10.3 10.2 89 0.9 WNW 9 13 5 7 1008.3 - 0.0
12/05:15am 12.2 10.7 10.4 89 0.9 WNW 9 11 5 6 1008.2 - 0.0
12/05:00am 12.9 11.2 11.1 89 1.0 WNW 11 11 6 6 1008.3 - 0.0
12/04:45am 12.7 10.6 11.0 89 0.9 NW 13 13 7 7 1008.6 - 0.0
12/04:30am 12.2 9.5 10.4 89 0.9 NW 15 15 8 8 1008.8 - 0.0
12/04:15am 12.4 10.1 10.5 88 1.0 NW 13 13 7 7 1009.0 - 0.0
12/04:00am 12.7 10.9 10.7 88 1.0 NW 11 11 6 6 1009.1 - 0.0
12/03:45am 13.1 11.0 11.2 88 1.0 NW 13 13 7 7 1009.3 - 0.0
12/03:30am 13.0 10.9 11.0 88 1.1 NW 13 13 7 7 1009.4 - 0.0
12/03:15am 13.1 11.7 11.0 87 1.1 NW 9 9 5 5 1009.6 - 0.0
12/03:00am 13.3 12.0 11.1 86 1.2 NW 9 9 5 5 1009.8 - 0.0
12/02:45am 13.4 12.5 11.2 86 1.2 NW 7 7 4 4 1010.0 - 0.0
12/02:30am 13.5 12.6 11.2 86 1.2 NW 7 7 4 4 1010.2 - 0.0
12/02:15am 13.7 12.8 11.3 85 1.3 WNW 7 9 4 5 1010.3 - 0.0
12/02:00am 14.0 12.4 11.4 84 1.4 WNW 11 11 6 6 1010.5 - 0.0
12/01:45am 14.3 12.4 11.7 84 1.4 WNW 13 11 7 6 1010.7 - 0.0
12/01:30am 14.4 12.5 11.7 84 1.5 WNW 13 13 7 7 1011.0 - 0.0
12/01:15am 14.6 13.1 11.8 83 1.5 WNW 11 13 6 7 1011.9 - 0.0
12/01:00am 14.9 13.4 11.9 82 1.6 WNW 11 13 6 7 1011.5 - 0.0
12/12:45am 15.1 13.3 12.1 82 1.6 WNW 13 13 7 7 1011.6 - 0.0
12/12:30am 15.2 13.4 12.0 81 1.7 WNW 13 13 7 7 1011.7 - 0.0
12/12:15am 15.6 14.2 12.2 80 1.9 W 11 13 6 7 1011.8 - 0.0
12/12:00am 15.9 15.3 12.3 79 2.0 WNW 7 13 4 7 1011.9 - 0.0
 
Date/Time
EDT
Temp
°C
App
Temp
°C
Dew
Point
°C
Rel
Hum
%
Delta-T
°C
Wind Press
QNH
hPa
Press
MSL
hPa
Rain since
9am
mm
Dir  Spd
km/h
Gust
km/h
Spd
kts
Gust
kts
11/11:45pm 16.1 15.5 12.4 79 2.0 NW 7 7 4 4 1012.0 - 0.0
11/11:30pm 16.2 15.6 12.4 78 2.1 NNW 7 7 4 4 1012.1 - 0.0
11/11:15pm 16.3 15.7 12.4 78 2.2 N 7 7 4 4 1012.1 - 0.0
11/11:00pm 16.8 16.2 12.4 75 2.4 N 7 9 4 5 1012.1 - 0.0
11/10:45pm 16.9 15.9 12.4 75 2.5 - 9 9 5 5 1012.2 - 0.0
11/10:30pm 17.2 16.2 12.4 73 2.7 - 9 13 5 7 1012.2 - 0.0
11/10:15pm 17.5 16.5 12.3 71 2.9 N 9 13 5 7 1012.2 - 0.0
11/10:00pm 17.9 16.6 12.4 70 3.1 N 11 13 6 7 1012.2 - 0.0
11/09:45pm 18.1 16.4 12.4 69 3.2 N 13 17 7 9 1012.2 - 0.0
11/09:30pm 18.4 17.1 12.5 68 3.3 N 11 17 6 9 1012.1 - 0.0
11/09:15pm 18.5 16.8 12.5 68 3.4 N 13 17 7 9 1012.0 - 0.0
11/09:00pm 18.7 16.7 12.7 68 3.4 NNE 15 19 8 10 1011.9 - 0.0
11/08:45pm 18.8 17.2 12.8 68 3.4 NNE 13 17 7 9 1011.8 - 0.0
11/08:30pm 19.1 17.2 13.0 67 3.5 NNE 15 20 8 11 1011.7 - 0.0
11/08:15pm 19.3 16.7 13.1 67 3.5 NNE 19 24 10 13 1011.7 - 0.0
11/08:00pm 19.6 16.9 13.0 65 3.8 NNE 19 24 10 13 1011.6 - 0.0
11/07:45pm 19.9 17.6 12.9 64 4.0 NNE 17 28 9 15 1011.5 - 0.0
11/07:30pm 20.3 17.3 12.6 61 4.4 NNE 20 30 11 16 1011.3 - 0.0
11/07:15pm 20.7 17.3 12.4 59 4.7 NNE 22 33 12 18 1011.1 - 0.0
11/07:00pm 21.1 17.2 12.2 56 5.0 NNE 24 33 13 18 1010.9 - 0.0
11/06:45pm 21.6 18.1 12.3 55 5.3 NNE 22 30 12 16 1010.7 - 0.0
11/06:30pm 22.2 17.8 11.8 51 5.9 NNE 26 32 14 17 1010.5 - 0.0
11/06:15pm 22.9 18.4 11.4 48 6.5 NNE 26 33 14 18 1010.3 - 0.0
11/06:00pm 23.3 18.7 11.0 46 6.9 NNE 26 33 14 18 1010.3 - 0.0
11/05:45pm 23.8 19.1 10.8 44 7.3 NNE 26 32 14 17 1010.4 - 0.0
11/05:30pm 24.5 21.1 11.3 43 7.5 NNE 20 28 11 15 1010.4 - 0.0
11/05:15pm 24.9 20.8 11.5 43 7.6 NNE 24 30 13 16 1010.4 - 0.0
11/05:00pm 25.0 20.6 11.6 43 7.6 NE 26 32 14 17 1010.5 - 0.0
11/04:45pm 25.5 21.0 11.5 41 8.0 NNE 26 32 14 17 1010.5 - 0.0
11/04:30pm 25.8 22.0 11.3 40 8.3 NE 22 30 12 16 1010.5 - 0.0
11/04:15pm 26.0 22.1 10.7 38 8.6 NNE 22 37 12 20 1010.6 - 0.0
11/04:00pm 26.4 22.4 10.5 37 9.0 NNE 22 32 12 17 1010.6 - 0.0
11/03:45pm 26.9 22.0 9.9 34 9.5 NNE 26 37 14 20 1010.6 - 0.0
11/03:30pm 28.0 23.2 5.5 24 11.7 N 20 30 11 16 1010.7 - 0.0
11/03:15pm 27.8 23.5 5.1 23 11.7 N 17 24 9 13 1011.0 - 0.0
11/03:00pm 27.8 23.8 5.0 23 11.8 NNW 15 24 8 13 1011.3 - 0.0
11/02:45pm 27.4 23.5 5.3 24 11.4 WNW 15 28 8 15 1011.6 - 0.0
11/02:30pm 27.1 23.2 5.5 25 11.2 NNW 15 24 8 13 1011.9 - 0.0
11/02:15pm 26.8 22.6 5.7 26 11.0 NNW 17 32 9 17 1012.2 - 0.0
11/02:00pm 26.7 23.2 5.4 25 11.0 NNW 13 26 7 14 1012.6 - 0.0
11/01:45pm 26.2 22.7 5.3 26 10.7 W 13 24 7 13 1012.9 - 0.0
11/01:30pm 25.7 22.6 5.5 27 10.4 NW 11 20 6 11 1013.2 - 0.0
11/01:15pm 25.5 22.0 5.4 27 10.3 NW 13 24 7 13 1013.4 - 0.0
11/01:00pm 25.2 22.5 5.7 28 10.0 NW 9 22 5 12 1013.7 - 0.0
11/12:45pm 24.9 22.3 6.0 29 9.8 WNW 9 22 5 12 1014.0 - 0.0
11/12:30pm 24.6 21.7 6.3 31 9.5 W 11 24 6 13 1014.2 - 0.0
11/12:15pm 24.0 20.6 5.7 30 9.4 W 13 19 7 10 1014.4 - 0.0
11/12:00pm 23.6 20.3 6.4 33 8.9 W 13 22 7 12 1014.7 - 0.0
11/11:45am 23.0 19.9 7.3 36 8.2 NW 13 19 7 10 1014.9 - 0.0
11/11:30am 22.6 20.5 8.2 39 7.6 WNW 9 17 5 9 1015.1 - 0.0
11/11:15am 21.8 19.4 8.7 43 7.0 N 11 19 6 10 1015.3 - 0.0
11/11:00am 21.8 19.5 9.1 44 6.8 NNW 11 17 6 9 1015.5 - 0.0
11/10:45am 21.0 18.8 9.4 47 6.2 NW 11 19 6 10 1015.7 - 0.0
11/10:30am 20.9 18.9 10.0 49 5.9 NW 11 20 6 11 1015.8 - 0.0
11/10:15am 20.1 17.7 10.0 52 5.5 NW 13 19 7 10 1015.9 - 0.0
11/10:00am 19.6 16.5 10.4 55 5.0 NNW 17 22 9 12 1016.0 - 0.0
11/09:45am 19.2 16.3 11.0 59 4.5 NNW 17 22 9 12 1016.2 - 0.0
11/09:30am 18.7 15.9 11.4 62 4.0 NNW 17 26 9 14 1016.3 - 0.0
11/09:15am 17.9 14.5 11.3 65 3.6 NNW 20 28 11 15 1016.4 - 0.0
11/09:00am 17.5 15.0 11.2 66 3.4 NNW 15 22 8 12 1016.4 - 0.0
11/08:45am 17.1 15.8 11.4 69 3.1 NNW 9 17 5 9 1016.4 - 0.0
11/08:30am 16.5 14.4 11.0 70 3.0 NW 13 19 7 10 1016.4 - 0.0
11/08:15am 16.3 14.5 11.0 71 2.9 NW 11 19 6 10 1016.4 - 0.0
11/08:00am 15.9 14.6 11.2 73 2.5 NW 9 15 5 8 1016.3 - 0.0
11/07:45am 15.2 13.5 11.3 77 2.1 NW 11 19 6 10 1016.3 - 0.0
11/07:30am 14.6 13.6 12.2 85 1.3 NW 9 15 5 8 1016.1 - 0.0
11/07:15am 12.6 10.9 11.1 91 0.8 NW 11 13 6 7 1016.0 - 0.0
11/07:00am 11.3 9.6 9.8 90 0.8 NW 9 9 5 5 1016.0 - 0.0
11/06:45am 10.6 8.7 9.1 90 0.8 NW 9 9 5 5 1016.0 - 0.0
11/06:30am 10.1 8.1 8.6 90 0.7 WNW 9 9 5 5 1016.1 - 0.0
11/06:15am 9.8 8.1 8.3 90 0.7 WNW 7 9 4 5 1016.1 - 0.0
11/06:00am 9.7 8.0 8.2 90 0.7 NW 7 7 4 4 1015.9 - 0.0
11/05:45am 9.7 7.9 8.1 90 0.8 NW 7 7 4 4 1015.7 - 0.0
11/05:30am 9.8 8.1 8.2 90 0.8 WNW 7 7 4 4 1015.8 - 0.0
11/05:15am 9.8 8.1 8.2 90 0.8 WNW 7 7 4 4 1015.9 - 0.0
11/05:00am 10.0 8.5 8.3 89 0.8 W 6 7 3 4 1015.8 - 0.0
11/04:45am 10.2 9.1 8.5 89 0.8 WNW 4 6 2 3 1015.8 - 0.0
11/04:30am 10.2 8.7 8.5 89 0.8 NW 6 6 3 3 1015.8 - 0.0
11/04:15am 10.3 8.8 8.6 89 0.8 WNW 6 6 3 3 1015.8 - 0.0
11/04:00am 10.5 8.9 8.7 89 0.9 NW 7 9 4 5 1015.8 - 0.0
11/03:45am 10.5 9.5 8.7 89 0.9 NNW 4 6 2 3 1015.8 - 0.0
11/03:30am 10.5 9.8 8.6 88 0.9 N 2 6 1 3 1015.9 - 0.0
11/03:15am 10.7 9.3 8.8 88 0.9 NNW 6 7 3 4 1015.9 - 0.0
11/03:00am 10.9 9.3 8.9 87 1.0 NNW 7 7 4 4 1015.9 - 0.0
11/02:45am 11.1 9.6 9.1 87 1.0 NNW 7 7 4 4 1015.8 - 0.0
11/02:30am 11.2 9.9 9.1 87 1.1 NNW 6 7 3 4 1015.9 - 0.0
11/02:15am 11.4 10.1 9.2 86 1.1 NW 6 6 3 3 1015.9 - 0.0
11/02:00am 11.5 10.2 9.3 86 1.1 NW 6 6 3 3 1016.0 - 0.0
11/01:45am 11.5 10.6 9.3 86 1.1 NW 4 4 2 2 1016.1 - 0.0
11/01:30am 11.6 10.7 9.3 86 1.2 NW 4 4 2 2 1016.2 - 0.0
11/01:15am 11.8 10.6 9.4 85 1.2 NW 6 6 3 3 1016.9 - 0.0
11/01:00am 12.1 10.9 9.6 85 1.3 NW 6 6 3 3 1016.3 - 0.0
11/12:45am 12.4 11.2 9.7 83 1.4 WNW 6 6 3 3 1016.3 - 0.0
11/12:30am 12.8 12.1 10.2 84 1.4 WNW 4 4 2 2 1016.4 - 0.0
11/12:15am 12.6 12.2 9.8 83 1.4 WNW 2 4 1 2 1016.4 - 0.0
11/12:00am 12.8 12.4 9.9 82 1.5 WNW 2 2 1 1 1016.4 - 0.0
 
Date/Time
EDT
Temp
°C
App
Temp
°C
Dew
Point
°C
Rel
Hum
%
Delta-T
°C
Wind Press
QNH
hPa
Press
MSL
hPa
Rain since
9am
mm
Dir  Spd
km/h
Gust
km/h
Spd
kts
Gust
kts
10/11:45pm 13.2 12.9 10.2 82 1.6 NW 2 4 1 2 1016.4 - 0.0
10/11:30pm 13.4 13.1 10.2 81 1.7 NW 2 4 1 2 1016.4 - 0.0
10/11:15pm 13.8 12.8 10.3 79 1.8 NW 6 6 3 3 1016.3 - 0.0
10/11:00pm 14.4 13.5 10.5 77 2.1 WNW 6 6 3 3 1016.3 - 0.0
10/10:45pm 14.8 14.3 10.9 77 2.1 WNW 4 6 2 3 1016.3 - 0.0
10/10:30pm 14.7 14.6 10.8 77 2.1 WNW 2 4 1 2 1016.3 - 0.0
10/10:15pm 14.4 14.3 10.7 78 2.0 WNW 2 4 1 2 1016.3 - 0.0
10/10:00pm 14.3 14.1 10.5 78 2.0 NNW 2 4 1 2 1016.2 - 0.0
10/09:45pm 14.5 14.7 10.5 77 2.1 CALM 0 2 0 1 1016.1 - 0.0
10/09:30pm 14.8 14.6 10.5 75 2.3 SSE 2 4 1 2 1015.9 - 0.0
10/09:15pm 15.3 14.4 10.5 73 2.5 SE 6 7 3 4 1015.7 - 0.0
10/09:00pm 15.6 14.5 10.6 72 2.7 ESE 7 9 4 5 1015.4 - 0.0
10/08:45pm 15.7 14.8 10.5 71 2.8 E 6 9 3 5 1015.2 - 0.0
10/08:30pm 15.8 14.6 10.3 70 2.9 ESE 7 9 4 5 1015.1 - 0.0
10/08:15pm 15.9 13.9 10.2 69 3.0 ESE 11 17 6 9 1014.8 - 0.0
10/08:00pm 16.0 13.6 10.0 67 3.2 ESE 13 20 7 11 1014.5 - 0.0
10/07:45pm 16.2 13.8 9.9 66 3.3 ESE 13 17 7 9 1014.3 - 0.0
10/07:30pm 16.4 13.5 9.8 65 3.5 ESE 15 20 8 11 1014.0 - 0.0
10/07:15pm 16.6 12.9 9.5 63 3.7 ESE 19 28 10 15 1013.5 - 0.0
10/07:00pm 16.8 11.7 9.3 61 3.9 ESE 26 30 14 16 1013.1 - 0.0
10/06:45pm 17.4 11.1 9.0 58 4.4 ESE 32 35 17 19 1012.6 - 0.0
10/06:30pm 17.7 11.1 8.4 54 4.8 ESE 33 35 18 19 1012.4 - 0.0
10/06:15pm 18.0 12.1 7.7 51 5.3 ESE 28 33 15 18 1012.3 - 0.0
10/06:00pm 18.2 11.9 7.5 49 5.5 ESE 30 32 16 17 1012.1 - 0.0
10/05:45pm 18.7 13.9 7.5 48 5.7 SE 22 35 12 19 1011.8 - 0.0
10/05:30pm 19.2 14.8 7.6 47 6.0 SE 20 28 11 15 1011.7 - 0.0
10/05:15pm 19.1 13.6 7.6 47 5.9 ESE 26 33 14 18 1011.4 - 0.0
10/05:00pm 19.4 13.9 7.5 46 6.1 ESE 26 33 14 18 1011.3 - 0.0
10/04:45pm 19.9 14.4 7.4 44 6.4 ESE 26 33 14 18 1011.0 - 0.0
10/04:30pm 20.3 15.1 7.3 43 6.7 ESE 24 30 13 16 1011.0 - 0.0
10/04:15pm 20.4 16.1 7.0 41 6.9 ESE 19 26 10 14 1010.9 - 0.0
10/04:00pm 20.7 15.4 6.9 40 7.1 ESE 24 32 13 17 1010.7 - 0.0
10/03:45pm 20.3 15.8 7.1 42 6.8 E 20 28 11 15 1010.7 - 0.0
10/03:30pm 20.8 16.9 7.0 40 7.1 E 17 24 9 13 1010.6 - 0.0
10/03:15pm 20.9 17.3 6.8 40 7.2 E 15 24 8 13 1010.6 - 0.0
10/03:00pm 21.2 17.8 6.0 37 7.7 ENE 13 20 7 11 1010.7 - 0.0
10/02:45pm 22.8 19.9 4.6 30 9.0 ESE 9 28 5 15 1010.7 - 0.0
10/02:30pm 23.8 19.6 3.8 27 9.9 WSW 15 22 8 12 1010.7 - 0.0
10/02:15pm 23.5 18.5 3.5 27 9.8 WSW 19 30 10 16 1010.9 - 0.0
10/02:00pm 23.0 18.4 3.5 28 9.5 W 17 28 9 15 1011.0 - 0.0
10/01:45pm 22.6 18.0 3.9 29 9.2 SW 17 26 9 14 1011.1 - 0.0
10/01:30pm 21.6 18.3 4.4 32 8.4 S 11 24 6 13 1011.2 - 0.0
10/01:15pm 21.6 18.6 3.9 31 8.6 WSW 9 15 5 8 1011.2 - 0.0
10/01:00pm 21.2 18.3 4.5 33 8.2 SSE 9 13 5 7 1011.4 - 0.0
10/12:45pm 21.8 18.5 4.5 32 8.5 S 11 24 6 13 1011.5 - 0.0
10/12:30pm 22.0 18.5 3.3 29 9.0 SW 11 22 6 12 1011.6 - 0.0
10/12:15pm 22.0 17.0 3.7 30 8.9 SSW 19 30 10 16 1011.8 - 0.0
10/12:00pm 20.9 16.6 3.2 31 8.4 SW 15 22 8 12 1011.9 - 0.0
10/11:45am 20.7 16.1 3.6 32 8.2 SW 17 24 9 13 1012.0 - 0.0
10/11:30am 19.8 14.5 3.0 33 7.9 WSW 20 30 11 16 1012.2 - 0.0
10/11:15am 20.0 15.6 2.9 32 8.1 SSW 15 32 8 17 1012.2 - 0.0
10/11:00am 20.7 16.4 3.3 31 8.3 SW 15 24 8 13 1012.2 - 0.0
10/10:45am 20.0 14.0 3.2 33 8.0 SSW 24 35 13 19 1012.3 - 0.0
10/10:30am 19.6 14.3 3.2 33 7.8 SW 20 30 11 16 1012.2 - 0.0
10/10:15am 19.5 14.4 3.3 34 7.7 SW 19 33 10 18 1012.3 - 0.0
10/10:00am 18.8 13.5 3.2 35 7.3 SW 20 28 11 15 1012.2 - 0.0
10/09:45am 18.6 13.5 3.2 36 7.2 WSW 19 28 10 15 1012.2 - 0.0
10/09:30am 18.1 12.8 3.1 36 7.0 SW 20 30 11 16 1012.3 - 0.0
10/09:15am 17.7 12.0 3.0 37 6.8 WSW 22 33 12 18 1012.3 - 0.0
10/09:00am 17.6 11.6 3.2 38 6.7 WSW 24 30 13 16 1012.2 - 0.0
10/08:45am 16.9 11.2 3.1 39 6.4 SW 22 30 12 16 1012.2 - 0.0
10/08:30am 16.5 10.5 3.1 40 6.2 WSW 24 33 13 18 1012.1 - 0.0
10/08:15am 16.0 9.9 3.0 41 5.9 SW 24 30 13 16 1011.9 - 0.0
10/08:00am 15.7 9.6 3.0 42 5.8 SW 24 33 13 18 1011.7 - 0.0
10/07:45am 15.4 10.3 3.1 43 5.6 WSW 19 28 10 15 1011.6 - 0.0
10/07:30am 14.7 11.8 2.6 44 5.4 WSW 7 17 4 9 1011.6 - 0.0
10/07:15am 14.1 11.8 2.5 45 5.2 SSW 4 7 2 4 1011.5 - 0.0
10/07:00am 13.4 11.0 2.2 46 4.9 SW 4 7 2 4 1011.3 - 0.0
10/06:45am 12.7 9.9 2.1 48 4.6 SW 6 9 3 5 1011.3 - 0.0
10/06:30am 12.4 8.3 2.0 49 4.5 SW 13 19 7 10 1011.1 - 0.0

Latest Capital City Observations: Canberra | Sydney | Melbourne | Brisbane | Adelaide | Perth | Hobart | Darwin

Other formats

Comma delimited format used in spreadsheet applications
http://www.bom.gov.au/fwo/IDN60901/IDN60901.95757.axf

JavaScript Object Notation format (JSON) in row-major order
http://www.bom.gov.au/fwo/IDN60901/IDN60901.95757.json

Data quality

Most of these data are generated automatically and are frequently updated. Quality checks on data are not normally performed. It is possible for incorrect values to appear. Refer to information at About Latest Weather Observations and please check the disclaimer before using these data.